sensor_id;sensor_type;location;lat;lon;timestamp;P1;durP1;ratioP1;P2;durP2;ratioP2
40945;SDS011;55635;50.264;11.918;2022-11-04T00:00:03;21.80;;;12.18;;
40945;SDS011;55635;50.264;11.918;2022-11-04T00:02:45;17.00;;;12.50;;
40945;SDS011;55635;50.264;11.918;2022-11-04T00:05:25;25.95;;;13.35;;
40945;SDS011;55635;50.264;11.918;2022-11-04T00:08:07;30.30;;;15.40;;
40945;SDS011;55635;50.264;11.918;2022-11-04T00:11:03;25.55;;;14.60;;
40945;SDS011;55635;50.264;11.918;2022-11-04T00:14:03;19.60;;;13.73;;
40945;SDS011;55635;50.264;11.918;2022-11-04T00:16:46;24.85;;;15.15;;
40945;SDS011;55635;50.264;11.918;2022-11-04T00:19:46;22.77;;;13.57;;
40945;SDS011;55635;50.264;11.918;2022-11-04T00:22:48;19.83;;;13.40;;
40945;SDS011;55635;50.264;11.918;2022-11-04T00:25:47;24.00;;;13.85;;
40945;SDS011;55635;50.264;11.918;2022-11-04T00:28:47;22.08;;;13.05;;
40945;SDS011;55635;50.264;11.918;2022-11-04T00:31:32;25.73;;;14.77;;
40945;SDS011;55635;50.264;11.918;2022-11-04T00:34:31;30.13;;;15.88;;
40945;SDS011;55635;50.264;11.918;2022-11-04T00:37:12;24.73;;;16.30;;
40945;SDS011;55635;50.264;11.918;2022-11-04T00:39:53;26.52;;;17.15;;
40945;SDS011;55635;50.264;11.918;2022-11-04T00:42:34;23.25;;;14.95;;
40945;SDS011;55635;50.264;11.918;2022-11-04T00:45:15;29.65;;;16.58;;
40945;SDS011;55635;50.264;11.918;2022-11-04T00:47:56;23.88;;;15.10;;
40945;SDS011;55635;50.264;11.918;2022-11-04T00:50:37;22.88;;;15.75;;
40945;SDS011;55635;50.264;11.918;2022-11-04T00:53:18;25.35;;;16.48;;
40945;SDS011;55635;50.264;11.918;2022-11-04T00:55:59;25.25;;;16.30;;
40945;SDS011;55635;50.264;11.918;2022-11-04T00:58:40;28.42;;;16.58;;
40945;SDS011;55635;50.264;11.918;2022-11-04T01:01:21;26.30;;;15.27;;
40945;SDS011;55635;50.264;11.918;2022-11-04T01:04:02;25.65;;;15.93;;
40945;SDS011;55635;50.264;11.918;2022-11-04T01:06:43;27.17;;;16.25;;
40945;SDS011;55635;50.264;11.918;2022-11-04T01:09:24;24.92;;;16.27;;
40945;SDS011;55635;50.264;11.918;2022-11-04T01:12:05;26.45;;;16.50;;
40945;SDS011;55635;50.264;11.918;2022-11-04T01:14:46;28.55;;;17.10;;
40945;SDS011;55635;50.264;11.918;2022-11-04T01:17:28;32.65;;;17.88;;
40945;SDS011;55635;50.264;11.918;2022-11-04T01:20:09;33.90;;;18.65;;
40945;SDS011;55635;50.264;11.918;2022-11-04T01:22:52;27.83;;;17.73;;
40945;SDS011;55635;50.264;11.918;2022-11-04T01:25:33;26.40;;;17.25;;
40945;SDS011;55635;50.264;11.918;2022-11-04T01:28:18;30.30;;;16.45;;
40945;SDS011;55635;50.264;11.918;2022-11-04T01:31:03;28.88;;;17.00;;
40945;SDS011;55635;50.264;11.918;2022-11-04T01:33:54;28.38;;;15.95;;
40945;SDS011;55635;50.264;11.918;2022-11-04T01:36:35;22.17;;;14.73;;
40945;SDS011;55635;50.264;11.918;2022-11-04T01:39:16;19.92;;;13.05;;
40945;SDS011;55635;50.264;11.918;2022-11-04T01:41:57;25.52;;;15.00;;
40945;SDS011;55635;50.264;11.918;2022-11-04T01:48:03;32.28;;;17.52;;
40945;SDS011;55635;50.264;11.918;2022-11-04T01:50:44;31.33;;;16.33;;
40945;SDS011;55635;50.264;11.918;2022-11-04T01:53:26;27.40;;;15.60;;
40945;SDS011;55635;50.264;11.918;2022-11-04T01:56:20;27.70;;;16.77;;
40945;SDS011;55635;50.264;11.918;2022-11-04T01:59:04;28.02;;;16.10;;
40945;SDS011;55635;50.264;11.918;2022-11-04T02:01:51;21.15;;;11.95;;
40945;SDS011;55635;50.264;11.918;2022-11-04T02:04:33;19.95;;;11.63;;
40945;SDS011;55635;50.264;11.918;2022-11-04T02:07:15;14.73;;;9.38;;
40945;SDS011;55635;50.264;11.918;2022-11-04T02:09:56;13.13;;;10.07;;
40945;SDS011;55635;50.264;11.918;2022-11-04T02:12:37;13.23;;;9.10;;
40945;SDS011;55635;50.264;11.918;2022-11-04T02:40:55;15.13;;;9.82;;
40945;SDS011;55635;50.264;11.918;2022-11-04T02:46:59;13.90;;;9.27;;
40945;SDS011;55635;50.264;11.918;2022-11-04T02:49:57;14.13;;;9.35;;
40945;SDS011;55635;50.264;11.918;2022-11-04T02:52:53;14.07;;;9.30;;
40945;SDS011;55635;50.264;11.918;2022-11-04T02:55:57;14.32;;;10.07;;
40945;SDS011;55635;50.264;11.918;2022-11-04T02:58:54;16.00;;;10.30;;
40945;SDS011;55635;50.264;11.918;2022-11-04T03:01:42;15.65;;;10.23;;
40945;SDS011;55635;50.264;11.918;2022-11-04T03:04:29;16.20;;;11.00;;
40945;SDS011;55635;50.264;11.918;2022-11-04T03:07:16;13.40;;;9.68;;
40945;SDS011;55635;50.264;11.918;2022-11-04T03:10:06;14.25;;;10.50;;
40945;SDS011;55635;50.264;11.918;2022-11-04T03:12:57;16.55;;;10.80;;
40945;SDS011;55635;50.264;11.918;2022-11-04T03:15:52;16.23;;;11.52;;
40945;SDS011;55635;50.264;11.918;2022-11-04T03:21:38;15.43;;;10.80;;
40945;SDS011;55635;50.264;11.918;2022-11-04T03:24:30;14.65;;;11.65;;
40945;SDS011;55635;50.264;11.918;2022-11-04T03:27:19;13.95;;;11.35;;
40945;SDS011;55635;50.264;11.918;2022-11-04T03:30:22;15.63;;;12.15;;
40945;SDS011;55635;50.264;11.918;2022-11-04T03:36:11;18.95;;;11.80;;
40945;SDS011;55635;50.264;11.918;2022-11-04T03:38:53;15.10;;;11.32;;
40945;SDS011;55635;50.264;11.918;2022-11-04T03:41:35;14.75;;;10.48;;
40945;SDS011;55635;50.264;11.918;2022-11-04T03:44:23;16.17;;;11.15;;
40945;SDS011;55635;50.264;11.918;2022-11-04T03:47:04;14.77;;;10.43;;
40945;SDS011;55635;50.264;11.918;2022-11-04T03:49:48;12.07;;;9.98;;
40945;SDS011;55635;50.264;11.918;2022-11-04T03:52:40;14.15;;;10.70;;
40945;SDS011;55635;50.264;11.918;2022-11-04T03:55:22;11.98;;;9.48;;
40945;SDS011;55635;50.264;11.918;2022-11-04T04:07:50;11.70;;;9.30;;
40945;SDS011;55635;50.264;11.918;2022-11-04T04:11:18;11.02;;;8.60;;
40945;SDS011;55635;50.264;11.918;2022-11-04T04:14:33;9.57;;;8.40;;
40945;SDS011;55635;50.264;11.918;2022-11-04T04:17:26;12.05;;;8.38;;
40945;SDS011;55635;50.264;11.918;2022-11-04T04:20:24;12.30;;;8.55;;
40945;SDS011;55635;50.264;11.918;2022-11-04T04:23:09;11.80;;;8.55;;
40945;SDS011;55635;50.264;11.918;2022-11-04T04:26:24;10.23;;;8.70;;
40945;SDS011;55635;50.264;11.918;2022-11-04T04:29:24;11.73;;;8.60;;
40945;SDS011;55635;50.264;11.918;2022-11-04T04:32:08;11.90;;;9.18;;
40945;SDS011;55635;50.264;11.918;2022-11-04T04:34:50;12.85;;;9.45;;
40945;SDS011;55635;50.264;11.918;2022-11-04T04:37:52;11.43;;;9.32;;
40945;SDS011;55635;50.264;11.918;2022-11-04T04:41:15;10.40;;;9.27;;
40945;SDS011;55635;50.264;11.918;2022-11-04T04:44:26;14.23;;;10.00;;
40945;SDS011;55635;50.264;11.918;2022-11-04T04:47:31;10.82;;;9.32;;
40945;SDS011;55635;50.264;11.918;2022-11-04T04:50:25;9.07;;;8.07;;
40945;SDS011;55635;50.264;11.918;2022-11-04T04:53:14;12.20;;;8.15;;
40945;SDS011;55635;50.264;11.918;2022-11-04T04:55:55;10.80;;;9.05;;
40945;SDS011;55635;50.264;11.918;2022-11-04T04:58:36;8.15;;;7.25;;
40945;SDS011;55635;50.264;11.918;2022-11-04T05:01:17;10.80;;;7.75;;
40945;SDS011;55635;50.264;11.918;2022-11-04T05:03:58;8.93;;;7.50;;
40945;SDS011;55635;50.264;11.918;2022-11-04T05:06:39;10.05;;;7.20;;
40945;SDS011;55635;50.264;11.918;2022-11-04T05:09:20;9.07;;;8.00;;
40945;SDS011;55635;50.264;11.918;2022-11-04T05:12:01;13.68;;;8.55;;
40945;SDS011;55635;50.264;11.918;2022-11-04T05:14:41;10.48;;;8.85;;
40945;SDS011;55635;50.264;11.918;2022-11-04T05:17:22;12.27;;;9.10;;
40945;SDS011;55635;50.264;11.918;2022-11-04T05:20:03;14.18;;;9.50;;
40945;SDS011;55635;50.264;11.918;2022-11-04T05:22:45;12.45;;;9.40;;
40945;SDS011;55635;50.264;11.918;2022-11-04T05:25:28;13.38;;;9.93;;
40945;SDS011;55635;50.264;11.918;2022-11-04T05:28:09;14.75;;;10.55;;
40945;SDS011;55635;50.264;11.918;2022-11-04T05:30:50;13.48;;;9.60;;
40945;SDS011;55635;50.264;11.918;2022-11-04T05:33:31;15.60;;;10.73;;
40945;SDS011;55635;50.264;11.918;2022-11-04T05:36:13;14.05;;;10.32;;
40945;SDS011;55635;50.264;11.918;2022-11-04T05:38:55;14.57;;;10.25;;
40945;SDS011;55635;50.264;11.918;2022-11-04T05:41:36;12.90;;;10.23;;
40945;SDS011;55635;50.264;11.918;2022-11-04T05:44:17;18.98;;;10.48;;
40945;SDS011;55635;50.264;11.918;2022-11-04T05:46:59;12.25;;;9.48;;
40945;SDS011;55635;50.264;11.918;2022-11-04T05:49:40;15.07;;;10.88;;
40945;SDS011;55635;50.264;11.918;2022-11-04T05:52:21;13.57;;;9.65;;
40945;SDS011;55635;50.264;11.918;2022-11-04T05:55:02;11.43;;;9.52;;
40945;SDS011;55635;50.264;11.918;2022-11-04T05:57:43;9.70;;;8.13;;
40945;SDS011;55635;50.264;11.918;2022-11-04T06:00:25;11.77;;;8.65;;
40945;SDS011;55635;50.264;11.918;2022-11-04T06:03:06;12.00;;;9.38;;
40945;SDS011;55635;50.264;11.918;2022-11-04T06:05:47;13.80;;;9.82;;
40945;SDS011;55635;50.264;11.918;2022-11-04T06:08:28;12.25;;;9.30;;
40945;SDS011;55635;50.264;11.918;2022-11-04T06:11:10;11.68;;;9.07;;
40945;SDS011;55635;50.264;11.918;2022-11-04T06:13:52;11.02;;;9.30;;
40945;SDS011;55635;50.264;11.918;2022-11-04T06:16:35;12.70;;;9.90;;
40945;SDS011;55635;50.264;11.918;2022-11-04T06:19:16;9.80;;;8.18;;
40945;SDS011;55635;50.264;11.918;2022-11-04T06:21:57;9.68;;;7.90;;
40945;SDS011;55635;50.264;11.918;2022-11-04T06:24:39;10.55;;;8.43;;
40945;SDS011;55635;50.264;11.918;2022-11-04T06:27:21;9.20;;;8.00;;
40945;SDS011;55635;50.264;11.918;2022-11-04T06:30:02;8.82;;;7.43;;
40945;SDS011;55635;50.264;11.918;2022-11-04T06:32:44;7.90;;;7.03;;
40945;SDS011;55635;50.264;11.918;2022-11-04T06:35:24;7.70;;;6.90;;
40945;SDS011;55635;50.264;11.918;2022-11-04T06:38:05;8.30;;;6.50;;
40945;SDS011;55635;50.264;11.918;2022-11-04T06:40:46;7.15;;;6.05;;
40945;SDS011;55635;50.264;11.918;2022-11-04T06:43:27;6.15;;;5.55;;
40945;SDS011;55635;50.264;11.918;2022-11-04T06:46:30;6.35;;;5.85;;
40945;SDS011;55635;50.264;11.918;2022-11-04T06:49:12;5.95;;;5.35;;
40945;SDS011;55635;50.264;11.918;2022-11-04T06:51:57;6.57;;;5.97;;
40945;SDS011;55635;50.264;11.918;2022-11-04T06:54:38;8.20;;;5.78;;
40945;SDS011;55635;50.264;11.918;2022-11-04T06:57:19;6.88;;;6.20;;
40945;SDS011;55635;50.264;11.918;2022-11-04T07:00:03;6.22;;;5.50;;
40945;SDS011;55635;50.264;11.918;2022-11-04T07:02:46;7.18;;;5.47;;
40945;SDS011;55635;50.264;11.918;2022-11-04T07:05:27;9.52;;;6.13;;
40945;SDS011;55635;50.264;11.918;2022-11-04T07:08:08;8.88;;;7.13;;
40945;SDS011;55635;50.264;11.918;2022-11-04T07:10:49;7.50;;;6.70;;
40945;SDS011;55635;50.264;11.918;2022-11-04T07:13:33;7.28;;;6.53;;
40945;SDS011;55635;50.264;11.918;2022-11-04T07:16:15;7.45;;;6.47;;
40945;SDS011;55635;50.264;11.918;2022-11-04T07:18:59;9.25;;;6.25;;
40945;SDS011;55635;50.264;11.918;2022-11-04T07:21:41;7.07;;;6.30;;
40945;SDS011;55635;50.264;11.918;2022-11-04T07:24:22;8.70;;;6.60;;
40945;SDS011;55635;50.264;11.918;2022-11-04T07:27:03;7.75;;;6.43;;
40945;SDS011;55635;50.264;11.918;2022-11-04T07:29:45;7.75;;;6.95;;
40945;SDS011;55635;50.264;11.918;2022-11-04T07:32:27;8.07;;;6.70;;
40945;SDS011;55635;50.264;11.918;2022-11-04T07:35:08;6.65;;;6.05;;
40945;SDS011;55635;50.264;11.918;2022-11-04T07:37:49;7.80;;;5.60;;
40945;SDS011;55635;50.264;11.918;2022-11-04T07:40:31;8.02;;;5.20;;
40945;SDS011;55635;50.264;11.918;2022-11-04T07:43:18;5.50;;;5.00;;
40945;SDS011;55635;50.264;11.918;2022-11-04T07:48:51;5.13;;;4.07;;
40945;SDS011;55635;50.264;11.918;2022-11-04T07:51:37;4.70;;;4.28;;
40945;SDS011;55635;50.264;11.918;2022-11-04T07:54:18;6.68;;;4.95;;
40945;SDS011;55635;50.264;11.918;2022-11-04T07:56:59;3.90;;;3.50;;
40945;SDS011;55635;50.264;11.918;2022-11-04T07:59:41;4.32;;;3.90;;
40945;SDS011;55635;50.264;11.918;2022-11-04T08:02:22;5.00;;;3.80;;
40945;SDS011;55635;50.264;11.918;2022-11-04T08:05:03;4.63;;;3.67;;
40945;SDS011;55635;50.264;11.918;2022-11-04T08:07:45;4.63;;;4.10;;
40945;SDS011;55635;50.264;11.918;2022-11-04T08:10:26;5.43;;;3.75;;
40945;SDS011;55635;50.264;11.918;2022-11-04T08:13:08;5.28;;;4.28;;
40945;SDS011;55635;50.264;11.918;2022-11-04T08:15:49;5.28;;;4.47;;
40945;SDS011;55635;50.264;11.918;2022-11-04T08:18:31;4.47;;;4.07;;
40945;SDS011;55635;50.264;11.918;2022-11-04T08:21:13;7.78;;;6.60;;
40945;SDS011;55635;50.264;11.918;2022-11-04T08:24:01;3.33;;;2.80;;
40945;SDS011;55635;50.264;11.918;2022-11-04T08:26:43;2.95;;;2.58;;
40945;SDS011;55635;50.264;11.918;2022-11-04T08:29:25;2.28;;;2.13;;
40945;SDS011;55635;50.264;11.918;2022-11-04T08:32:06;1.85;;;1.75;;
40945;SDS011;55635;50.264;11.918;2022-11-04T08:34:48;4.85;;;2.00;;
40945;SDS011;55635;50.264;11.918;2022-11-04T08:37:30;1.60;;;1.50;;
40945;SDS011;55635;50.264;11.918;2022-11-04T08:40:14;1.30;;;1.20;;
40945;SDS011;55635;50.264;11.918;2022-11-04T08:42:55;1.40;;;1.30;;
40945;SDS011;55635;50.264;11.918;2022-11-04T08:45:40;1.20;;;1.02;;
40945;SDS011;55635;50.264;11.918;2022-11-04T08:48:26;1.27;;;1.10;;
40945;SDS011;55635;50.264;11.918;2022-11-04T08:51:26;2.35;;;1.00;;
40945;SDS011;55635;50.264;11.918;2022-11-04T08:54:09;1.90;;;1.00;;
40945;SDS011;55635;50.264;11.918;2022-11-04T08:56:51;2.15;;;0.88;;
40945;SDS011;55635;50.264;11.918;2022-11-04T08:59:32;1.05;;;0.90;;
40945;SDS011;55635;50.264;11.918;2022-11-04T09:02:14;1.27;;;1.10;;
40945;SDS011;55635;50.264;11.918;2022-11-04T09:04:56;0.98;;;0.80;;
40945;SDS011;55635;50.264;11.918;2022-11-04T09:07:38;1.77;;;1.05;;
40945;SDS011;55635;50.264;11.918;2022-11-04T09:10:19;1.30;;;1.20;;
40945;SDS011;55635;50.264;11.918;2022-11-04T09:13:01;1.40;;;1.30;;
40945;SDS011;55635;50.264;11.918;2022-11-04T09:15:46;1.10;;;1.00;;
40945;SDS011;55635;50.264;11.918;2022-11-04T09:18:28;1.40;;;1.30;;
40945;SDS011;55635;50.264;11.918;2022-11-04T09:21:10;1.20;;;1.10;;
40945;SDS011;55635;50.264;11.918;2022-11-04T09:23:51;1.35;;;1.25;;
40945;SDS011;55635;50.264;11.918;2022-11-04T09:26:33;1.38;;;1.15;;
40945;SDS011;55635;50.264;11.918;2022-11-04T09:29:15;1.10;;;0.90;;
40945;SDS011;55635;50.264;11.918;2022-11-04T09:31:56;0.95;;;0.93;;
40945;SDS011;55635;50.264;11.918;2022-11-04T09:34:37;1.10;;;1.00;;
40945;SDS011;55635;50.264;11.918;2022-11-04T09:37:18;0.98;;;0.88;;
40945;SDS011;55635;50.264;11.918;2022-11-04T09:40:00;1.55;;;1.20;;
40945;SDS011;55635;50.264;11.918;2022-11-04T09:42:51;1.25;;;1.15;;
40945;SDS011;55635;50.264;11.918;2022-11-04T09:45:44;1.25;;;1.15;;
40945;SDS011;55635;50.264;11.918;2022-11-04T09:48:46;1.10;;;0.93;;
40945;SDS011;55635;50.264;11.918;2022-11-04T09:51:35;2.17;;;0.85;;
40945;SDS011;55635;50.264;11.918;2022-11-04T09:54:21;1.73;;;1.17;;
40945;SDS011;55635;50.264;11.918;2022-11-04T09:57:08;1.00;;;1.00;;
40945;SDS011;55635;50.264;11.918;2022-11-04T09:59:57;2.90;;;1.20;;
40945;SDS011;55635;50.264;11.918;2022-11-04T10:05:54;1.65;;;1.25;;
40945;SDS011;55635;50.264;11.918;2022-11-04T10:09:22;1.58;;;1.48;;
40945;SDS011;55635;50.264;11.918;2022-11-04T10:16:53;0.98;;;0.98;;
40945;SDS011;55635;50.264;11.918;2022-11-04T10:19:19;1.73;;;1.35;;
40945;SDS011;55635;50.264;11.918;2022-11-04T10:22:28;3.05;;;1.05;;
40945;SDS011;55635;50.264;11.918;2022-11-04T10:25:15;1.20;;;1.10;;
40945;SDS011;55635;50.264;11.918;2022-11-04T10:28:04;3.53;;;1.48;;
40945;SDS011;55635;50.264;11.918;2022-11-04T10:31:13;6.10;;;1.55;;
40945;SDS011;55635;50.264;11.918;2022-11-04T10:34:07;1.80;;;1.63;;
40945;SDS011;55635;50.264;11.918;2022-11-04T10:37:11;1.50;;;1.40;;
40945;SDS011;55635;50.264;11.918;2022-11-04T10:39:59;2.22;;;1.73;;
40945;SDS011;55635;50.264;11.918;2022-11-04T10:43:02;1.95;;;1.27;;
40945;SDS011;55635;50.264;11.918;2022-11-04T10:46:08;2.40;;;1.65;;
40945;SDS011;55635;50.264;11.918;2022-11-04T10:52:42;4.82;;;1.90;;
40945;SDS011;55635;50.264;11.918;2022-11-04T10:59:29;2.13;;;1.92;;
40945;SDS011;55635;50.264;11.918;2022-11-04T11:02:46;4.47;;;2.00;;
40945;SDS011;55635;50.264;11.918;2022-11-04T11:05:28;3.65;;;2.20;;
40945;SDS011;55635;50.264;11.918;2022-11-04T11:08:14;2.03;;;1.83;;
40945;SDS011;55635;50.264;11.918;2022-11-04T11:11:15;1.98;;;1.80;;
40945;SDS011;55635;50.264;11.918;2022-11-04T11:20:20;2.47;;;2.05;;
40945;SDS011;55635;50.264;11.918;2022-11-04T11:23:03;3.58;;;1.98;;
40945;SDS011;55635;50.264;11.918;2022-11-04T11:25:48;3.45;;;1.70;;
40945;SDS011;55635;50.264;11.918;2022-11-04T11:28:30;3.25;;;2.22;;
40945;SDS011;55635;50.264;11.918;2022-11-04T11:31:17;2.85;;;2.65;;
40945;SDS011;55635;50.264;11.918;2022-11-04T11:34:06;5.05;;;2.25;;
40945;SDS011;55635;50.264;11.918;2022-11-04T11:37:01;2.55;;;2.35;;
40945;SDS011;55635;50.264;11.918;2022-11-04T11:39:44;2.95;;;2.65;;
40945;SDS011;55635;50.264;11.918;2022-11-04T11:42:25;3.28;;;2.40;;
40945;SDS011;55635;50.264;11.918;2022-11-04T11:45:13;2.53;;;2.33;;
40945;SDS011;55635;50.264;11.918;2022-11-04T11:47:56;4.63;;;2.50;;
40945;SDS011;55635;50.264;11.918;2022-11-04T11:50:37;4.90;;;2.30;;
40945;SDS011;55635;50.264;11.918;2022-11-04T11:53:27;2.60;;;2.33;;
40945;SDS011;55635;50.264;11.918;2022-11-04T12:11:12;2.55;;;1.60;;
40945;SDS011;55635;50.264;11.918;2022-11-04T12:17:43;2.67;;;2.03;;
40945;SDS011;55635;50.264;11.918;2022-11-04T12:32:53;1.98;;;1.50;;
40945;SDS011;55635;50.264;11.918;2022-11-04T12:39:22;2.33;;;1.67;;
40945;SDS011;55635;50.264;11.918;2022-11-04T12:42:20;1.65;;;1.55;;
40945;SDS011;55635;50.264;11.918;2022-11-04T12:45:28;6.03;;;1.60;;
40945;SDS011;55635;50.264;11.918;2022-11-04T13:01:04;3.55;;;1.40;;
40945;SDS011;55635;50.264;11.918;2022-11-04T13:04:06;3.13;;;1.70;;
40945;SDS011;55635;50.264;11.918;2022-11-04T13:07:15;9.98;;;1.60;;
40945;SDS011;55635;50.264;11.918;2022-11-04T13:10:17;1.98;;;1.80;;
40945;SDS011;55635;50.264;11.918;2022-11-04T13:13:05;5.55;;;1.55;;
40945;SDS011;55635;50.264;11.918;2022-11-04T13:15:49;2.90;;;1.75;;
40945;SDS011;55635;50.264;11.918;2022-11-04T13:18:36;2.53;;;2.03;;
40945;SDS011;55635;50.264;11.918;2022-11-04T13:21:23;4.15;;;2.00;;
40945;SDS011;55635;50.264;11.918;2022-11-04T13:27:18;2.92;;;1.60;;
40945;SDS011;55635;50.264;11.918;2022-11-04T13:30:22;2.90;;;1.60;;
40945;SDS011;55635;50.264;11.918;2022-11-04T13:33:12;2.67;;;1.73;;
40945;SDS011;55635;50.264;11.918;2022-11-04T13:39:33;3.25;;;1.63;;
40945;SDS011;55635;50.264;11.918;2022-11-04T13:48:51;4.18;;;1.98;;
40945;SDS011;55635;50.264;11.918;2022-11-04T13:51:42;6.53;;;1.90;;
40945;SDS011;55635;50.264;11.918;2022-11-04T13:54:30;4.97;;;1.70;;
40945;SDS011;55635;50.264;11.918;2022-11-04T13:57:30;5.47;;;1.38;;
40945;SDS011;55635;50.264;11.918;2022-11-04T14:06:57;1.60;;;1.13;;
40945;SDS011;55635;50.264;11.918;2022-11-04T14:12:33;3.40;;;2.33;;
40945;SDS011;55635;50.264;11.918;2022-11-04T14:15:15;2.53;;;1.35;;
40945;SDS011;55635;50.264;11.918;2022-11-04T14:18:44;3.72;;;1.40;;
40945;SDS011;55635;50.264;11.918;2022-11-04T14:21:28;3.10;;;1.30;;
40945;SDS011;55635;50.264;11.918;2022-11-04T14:24:54;5.03;;;1.50;;
40945;SDS011;55635;50.264;11.918;2022-11-04T14:27:40;5.70;;;1.67;;
40945;SDS011;55635;50.264;11.918;2022-11-04T14:31:04;6.03;;;2.35;;
40945;SDS011;55635;50.264;11.918;2022-11-04T14:36:36;2.80;;;1.53;;
40945;SDS011;55635;50.264;11.918;2022-11-04T14:39:20;5.97;;;1.75;;
40945;SDS011;55635;50.264;11.918;2022-11-04T14:42:07;3.70;;;2.08;;
40945;SDS011;55635;50.264;11.918;2022-11-04T14:44:53;4.13;;;2.05;;
40945;SDS011;55635;50.264;11.918;2022-11-04T14:47:34;5.57;;;2.17;;
40945;SDS011;55635;50.264;11.918;2022-11-04T14:50:22;4.88;;;1.88;;
40945;SDS011;55635;50.264;11.918;2022-11-04T14:53:08;6.75;;;2.47;;
40945;SDS011;55635;50.264;11.918;2022-11-04T14:56:09;5.32;;;1.88;;
40945;SDS011;55635;50.264;11.918;2022-11-04T14:58:58;2.67;;;2.10;;
40945;SDS011;55635;50.264;11.918;2022-11-04T15:01:44;6.05;;;1.95;;
40945;SDS011;55635;50.264;11.918;2022-11-04T15:04:26;3.60;;;2.10;;
40945;SDS011;55635;50.264;11.918;2022-11-04T15:07:19;6.97;;;2.10;;
40945;SDS011;55635;50.264;11.918;2022-11-04T15:10:19;6.65;;;3.63;;
40945;SDS011;55635;50.264;11.918;2022-11-04T15:13:03;13.18;;;7.05;;
40945;SDS011;55635;50.264;11.918;2022-11-04T15:15:44;8.30;;;5.55;;
40945;SDS011;55635;50.264;11.918;2022-11-04T15:18:30;7.38;;;3.22;;
40945;SDS011;55635;50.264;11.918;2022-11-04T15:21:11;3.65;;;2.55;;
40945;SDS011;55635;50.264;11.918;2022-11-04T15:23:53;8.70;;;2.58;;
40945;SDS011;55635;50.264;11.918;2022-11-04T15:26:35;6.78;;;2.28;;
40945;SDS011;55635;50.264;11.918;2022-11-04T15:29:17;9.73;;;2.95;;
40945;SDS011;55635;50.264;11.918;2022-11-04T15:32:03;4.63;;;2.60;;
40945;SDS011;55635;50.264;11.918;2022-11-04T15:34:44;6.22;;;2.30;;
40945;SDS011;55635;50.264;11.918;2022-11-04T15:37:26;2.85;;;2.30;;
40945;SDS011;55635;50.264;11.918;2022-11-04T15:40:11;4.90;;;2.13;;
40945;SDS011;55635;50.264;11.918;2022-11-04T15:42:53;3.50;;;1.67;;
40945;SDS011;55635;50.264;11.918;2022-11-04T15:45:38;3.70;;;1.90;;
40945;SDS011;55635;50.264;11.918;2022-11-04T15:48:31;4.15;;;2.13;;
40945;SDS011;55635;50.264;11.918;2022-11-04T15:51:20;4.13;;;1.80;;
40945;SDS011;55635;50.264;11.918;2022-11-04T15:54:23;7.32;;;2.00;;
40945;SDS011;55635;50.264;11.918;2022-11-04T15:57:24;3.53;;;1.73;;
40945;SDS011;55635;50.264;11.918;2022-11-04T16:02:55;3.53;;;2.30;;
40945;SDS011;55635;50.264;11.918;2022-11-04T16:05:38;5.15;;;2.00;;
40945;SDS011;55635;50.264;11.918;2022-11-04T16:08:22;4.03;;;1.90;;
40945;SDS011;55635;50.264;11.918;2022-11-04T16:11:12;4.72;;;1.85;;
40945;SDS011;55635;50.264;11.918;2022-11-04T16:14:21;5.43;;;1.90;;
40945;SDS011;55635;50.264;11.918;2022-11-04T16:17:08;5.53;;;2.10;;
40945;SDS011;55635;50.264;11.918;2022-11-04T16:19:51;4.28;;;2.30;;
40945;SDS011;55635;50.264;11.918;2022-11-04T16:22:39;2.83;;;2.03;;
40945;SDS011;55635;50.264;11.918;2022-11-04T16:25:22;6.40;;;2.30;;
40945;SDS011;55635;50.264;11.918;2022-11-04T16:28:05;4.38;;;2.65;;
40945;SDS011;55635;50.264;11.918;2022-11-04T16:31:03;86.35;;;38.25;;
40945;SDS011;55635;50.264;11.918;2022-11-04T16:34:01;144.10;;;84.60;;
40945;SDS011;55635;50.264;11.918;2022-11-04T16:36:43;33.33;;;22.60;;
40945;SDS011;55635;50.264;11.918;2022-11-04T16:39:23;8.50;;;4.40;;
40945;SDS011;55635;50.264;11.918;2022-11-04T16:42:04;7.30;;;3.28;;
40945;SDS011;55635;50.264;11.918;2022-11-04T16:44:47;5.28;;;2.67;;
40945;SDS011;55635;50.264;11.918;2022-11-04T16:47:35;6.95;;;2.70;;
40945;SDS011;55635;50.264;11.918;2022-11-04T16:50:19;4.53;;;2.67;;
40945;SDS011;55635;50.264;11.918;2022-11-04T16:53:00;5.28;;;2.60;;
40945;SDS011;55635;50.264;11.918;2022-11-04T16:55:42;5.97;;;3.40;;
40945;SDS011;55635;50.264;11.918;2022-11-04T16:58:24;5.20;;;2.80;;
40945;SDS011;55635;50.264;11.918;2022-11-04T17:01:04;5.45;;;2.72;;
40945;SDS011;55635;50.264;11.918;2022-11-04T17:03:45;5.30;;;3.17;;
40945;SDS011;55635;50.264;11.918;2022-11-04T17:06:26;6.93;;;3.42;;
40945;SDS011;55635;50.264;11.918;2022-11-04T17:09:17;7.45;;;3.38;;
40945;SDS011;55635;50.264;11.918;2022-11-04T17:12:01;4.82;;;3.22;;
40945;SDS011;55635;50.264;11.918;2022-11-04T17:14:42;5.53;;;2.97;;
40945;SDS011;55635;50.264;11.918;2022-11-04T17:17:24;7.05;;;3.30;;
40945;SDS011;55635;50.264;11.918;2022-11-04T17:20:05;7.05;;;3.30;;
40945;SDS011;55635;50.264;11.918;2022-11-04T17:22:48;3.97;;;3.10;;
40945;SDS011;55635;50.264;11.918;2022-11-04T17:25:30;4.78;;;2.70;;
40945;SDS011;55635;50.264;11.918;2022-11-04T17:28:10;10.13;;;3.38;;
40945;SDS011;55635;50.264;11.918;2022-11-04T17:30:53;3.92;;;3.08;;
40945;SDS011;55635;50.264;11.918;2022-11-04T17:33:34;6.43;;;3.40;;
40945;SDS011;55635;50.264;11.918;2022-11-04T17:36:16;5.72;;;3.53;;
40945;SDS011;55635;50.264;11.918;2022-11-04T17:38:58;8.63;;;3.85;;
40945;SDS011;55635;50.264;11.918;2022-11-04T17:41:39;7.03;;;3.83;;
40945;SDS011;55635;50.264;11.918;2022-11-04T17:44:39;5.03;;;4.03;;
40945;SDS011;55635;50.264;11.918;2022-11-04T17:47:20;6.55;;;4.00;;
40945;SDS011;55635;50.264;11.918;2022-11-04T17:50:01;6.50;;;3.72;;
40945;SDS011;55635;50.264;11.918;2022-11-04T17:52:47;5.28;;;3.40;;
40945;SDS011;55635;50.264;11.918;2022-11-04T17:55:28;6.72;;;4.50;;
40945;SDS011;55635;50.264;11.918;2022-11-04T17:58:09;6.88;;;4.20;;
40945;SDS011;55635;50.264;11.918;2022-11-04T18:00:49;7.63;;;4.20;;
40945;SDS011;55635;50.264;11.918;2022-11-04T18:03:30;6.15;;;4.28;;
40945;SDS011;55635;50.264;11.918;2022-11-04T18:06:11;7.53;;;4.97;;
40945;SDS011;55635;50.264;11.918;2022-11-04T18:08:53;7.03;;;5.10;;
40945;SDS011;55635;50.264;11.918;2022-11-04T18:11:36;6.15;;;4.88;;
40945;SDS011;55635;50.264;11.918;2022-11-04T18:14:35;6.43;;;4.63;;
40945;SDS011;55635;50.264;11.918;2022-11-04T18:17:16;6.15;;;4.90;;
40945;SDS011;55635;50.264;11.918;2022-11-04T18:19:57;6.20;;;5.03;;
40945;SDS011;55635;50.264;11.918;2022-11-04T18:22:38;7.45;;;4.05;;
40945;SDS011;55635;50.264;11.918;2022-11-04T18:25:20;5.80;;;3.35;;
40945;SDS011;55635;50.264;11.918;2022-11-04T18:28:01;4.93;;;3.58;;
40945;SDS011;55635;50.264;11.918;2022-11-04T18:30:42;6.43;;;4.78;;
40945;SDS011;55635;50.264;11.918;2022-11-04T18:33:23;6.43;;;4.78;;
40945;SDS011;55635;50.264;11.918;2022-11-04T18:36:04;7.60;;;4.18;;
40945;SDS011;55635;50.264;11.918;2022-11-04T18:38:46;5.47;;;3.80;;
40945;SDS011;55635;50.264;11.918;2022-11-04T18:41:27;6.72;;;3.88;;
40945;SDS011;55635;50.264;11.918;2022-11-04T18:44:18;15.77;;;8.38;;
40945;SDS011;55635;50.264;11.918;2022-11-04T18:47:01;32.40;;;15.95;;
40945;SDS011;55635;50.264;11.918;2022-11-04T18:49:45;56.58;;;28.95;;